createdAt,value
2023-03-01T00:01:58.633Z,5.74
2023-03-01T00:04:25.552Z,5.74
2023-03-01T00:06:52.361Z,5.65
2023-03-01T00:09:19.113Z,5.70
2023-03-01T00:11:45.868Z,5.66
2023-03-01T00:14:13.286Z,5.49
2023-03-01T00:16:41.301Z,5.41
2023-03-01T00:19:08.676Z,5.49
2023-03-01T00:21:36.512Z,5.49
2023-03-01T00:24:03.775Z,5.45
2023-03-01T00:26:30.944Z,5.58
2023-03-01T00:28:58.233Z,5.58
2023-03-01T00:31:26.154Z,5.45
2023-03-01T00:34:00.780Z,5.56
2023-03-01T00:36:29.279Z,5.38
2023-03-01T00:38:56.736Z,5.35
2023-03-01T00:41:27.655Z,5.55
2023-03-01T00:43:54.852Z,5.62
2023-03-01T00:46:23.352Z,5.68
2023-03-01T00:48:51.258Z,5.64
2023-03-01T00:51:19.740Z,5.47
2023-03-01T00:53:46.707Z,5.33
2023-03-01T00:56:14.568Z,5.49
2023-03-01T00:58:41.736Z,5.51
2023-03-01T01:01:18.179Z,5.53
2023-03-01T01:03:46.227Z,5.50
2023-03-01T01:06:20.454Z,5.34
2023-03-01T01:08:47.273Z,5.29
2023-03-01T01:11:14.825Z,5.51
2023-03-01T01:13:41.705Z,5.58
2023-03-01T01:16:08.868Z,5.42
2023-03-01T01:18:35.634Z,5.35
2023-03-01T01:21:07.470Z,5.33
2023-03-01T01:23:34.472Z,5.36
2023-03-01T01:26:05.197Z,5.30
2023-03-01T01:28:31.737Z,5.29
2023-03-01T01:30:58.143Z,5.27
2023-03-01T01:33:24.679Z,5.22
2023-03-01T01:35:51.299Z,5.18
2023-03-01T01:38:17.736Z,5.27
2023-03-01T01:40:47.474Z,5.25
2023-03-01T01:43:21.773Z,5.18
2023-03-01T01:45:48.611Z,5.22
2023-03-01T01:48:21.665Z,5.20
2023-03-01T01:50:52.296Z,5.33
2023-03-01T01:53:21.211Z,5.18
2023-03-01T01:55:50.601Z,5.27
2023-03-01T01:58:18.771Z,5.22
2023-03-01T02:00:45.761Z,5.14
2023-03-01T02:03:15.216Z,5.04
2023-03-01T02:05:54.930Z,5.14
2023-03-01T02:08:22.672Z,5.10
2023-03-01T02:10:51.801Z,5.22
2023-03-01T02:13:18.698Z,5.22
2023-03-01T02:15:45.762Z,5.30
2023-03-01T02:18:14.454Z,5.28
2023-03-01T02:20:55.786Z,5.22
2023-03-01T02:23:22.553Z,5.20
2023-03-01T02:26:08.892Z,5.20
2023-03-01T02:28:36.903Z,5.20
2023-03-01T02:31:23.837Z,5.16
2023-03-01T02:33:50.888Z,4.93
2023-03-01T02:36:19.634Z,4.95
2023-03-01T02:38:48.829Z,5.08
2023-03-01T02:41:16.790Z,5.14
2023-03-01T02:43:44.699Z,4.91
2023-03-01T02:46:16.731Z,4.98
2023-03-01T02:48:45.354Z,4.89
2023-03-01T02:51:20.314Z,4.86
2023-03-01T02:53:55.616Z,4.97
2023-03-01T02:56:23.822Z,4.88
2023-03-01T02:58:53.933Z,4.65
2023-03-01T03:01:20.876Z,4.93
2023-03-01T03:03:48.182Z,4.94
2023-03-01T03:06:14.724Z,4.93
2023-03-01T03:08:41.321Z,4.87
2023-03-01T03:11:07.927Z,5.05
2023-03-01T03:13:35.188Z,5.11
2023-03-01T03:16:04.905Z,5.01
2023-03-01T03:18:32.287Z,4.94
2023-03-01T03:20:59.126Z,5.04
2023-03-01T03:23:26.927Z,5.13
2023-03-01T03:25:53.899Z,5.11
2023-03-01T03:28:20.983Z,5.21
2023-03-01T03:30:49.258Z,5.55
2023-03-01T03:33:16.012Z,5.41
2023-03-01T03:35:44.804Z,5.68
2023-03-01T03:38:16.745Z,5.88
2023-03-01T03:40:47.997Z,5.88
2023-03-01T03:43:16.759Z,5.93
2023-03-01T03:45:45.385Z,5.94
2023-03-01T03:48:18.197Z,5.81
2023-03-01T03:50:49.628Z,5.91
2023-03-01T03:53:17.701Z,5.62
2023-03-01T03:55:45.439Z,5.82
2023-03-01T03:58:12.301Z,5.60
2023-03-01T04:00:40.902Z,5.64
2023-03-01T04:03:08.592Z,5.68
2023-03-01T04:05:35.497Z,5.79
2023-03-01T04:08:02.604Z,5.90
2023-03-01T04:10:31.675Z,5.77
2023-03-01T04:12:58.838Z,5.84
2023-03-01T04:15:26.784Z,5.90
2023-03-01T04:17:54.278Z,5.96
2023-03-01T04:20:26.848Z,5.98
2023-03-01T04:22:53.273Z,6.02
2023-03-01T04:25:20.901Z,6.05
2023-03-01T04:27:48.150Z,6.21
2023-03-01T04:30:14.864Z,6.22
2023-03-01T04:32:42.801Z,6.28
2023-03-01T04:35:09.747Z,6.07
2023-03-01T04:37:36.465Z,6.28
2023-03-01T04:40:14.447Z,6.49
2023-03-01T04:42:43.445Z,6.15
2023-03-01T04:45:14.340Z,6.55
2023-03-01T04:47:42.134Z,6.57
2023-03-01T04:50:09.229Z,6.50
2023-03-01T04:52:36.327Z,6.63
2023-03-01T04:55:03.392Z,6.51
2023-03-01T04:57:30.998Z,6.60
2023-03-01T04:59:58.822Z,6.77
2023-03-01T05:02:25.638Z,6.91
2023-03-01T05:04:52.971Z,6.58
2023-03-01T05:07:22.625Z,6.58
2023-03-01T05:09:56.492Z,6.51
2023-03-01T05:12:23.213Z,6.94
2023-03-01T05:14:50.134Z,7.17
2023-03-01T05:17:16.952Z,7.37
2023-03-01T05:19:44.083Z,7.42
2023-03-01T05:22:11.930Z,7.47
2023-03-01T05:24:40.216Z,7.47
2023-03-01T05:27:08.437Z,7.44
2023-03-01T05:29:36.036Z,6.99
2023-03-01T05:32:04.058Z,7.10
2023-03-01T05:34:32.534Z,7.08
2023-03-01T05:36:59.326Z,7.19
2023-03-01T05:39:28.221Z,7.49
2023-03-01T05:41:55.530Z,7.39
2023-03-01T05:44:22.971Z,7.28
2023-03-01T05:46:50.654Z,7.08
2023-03-01T05:49:17.392Z,7.15
2023-03-01T05:51:48.377Z,7.22
2023-03-01T05:54:14.915Z,7.25
2023-03-01T05:56:41.407Z,7.26
2023-03-01T05:59:08.328Z,7.28
2023-03-01T06:01:35.571Z,7.36
2023-03-01T06:04:02.928Z,7.38
2023-03-01T06:06:30.490Z,7.32
2023-03-01T06:08:57.406Z,6.09
2023-03-01T06:11:23.995Z,6.68
2023-03-01T06:13:50.832Z,7.01
2023-03-01T06:16:17.662Z,6.49
2023-03-01T06:18:44.449Z,6.92
2023-03-01T06:21:11.134Z,6.67
2023-03-01T06:23:37.812Z,6.15
2023-03-01T06:26:10.023Z,6.93
2023-03-01T06:28:36.893Z,6.86
2023-03-01T06:31:03.991Z,6.78
2023-03-01T06:33:30.375Z,7.48
2023-03-01T06:35:57.505Z,7.78
2023-03-01T06:38:25.499Z,7.80
2023-03-01T06:40:57.424Z,8.06
2023-03-01T06:43:24.844Z,8.14
2023-03-01T06:45:52.044Z,8.35
2023-03-01T06:48:18.934Z,8.52
2023-03-01T06:50:46.262Z,8.24
2023-03-01T06:53:13.699Z,8.55
2023-03-01T06:55:40.509Z,8.34
2023-03-01T06:58:07.025Z,8.61
2023-03-01T07:00:33.962Z,8.78
2023-03-01T07:03:01.275Z,9.07
2023-03-01T07:05:27.992Z,8.74
2023-03-01T07:07:55.619Z,8.87
2023-03-01T07:10:22.404Z,8.66
2023-03-01T07:12:49.080Z,9.13
2023-03-01T07:15:16.241Z,9.25
2023-03-01T07:17:42.912Z,9.38
2023-03-01T07:20:10.421Z,9.18
2023-03-01T07:22:37.375Z,9.18
2023-03-01T07:25:04.716Z,8.55
2023-03-01T07:27:31.386Z,8.16
2023-03-01T07:29:58.093Z,7.24
2023-03-01T07:32:25.108Z,8.01
2023-03-01T07:34:52.956Z,7.90
2023-03-01T07:37:20.970Z,7.63
2023-03-01T07:39:49.003Z,8.23
2023-03-01T07:42:16.375Z,7.66
2023-03-01T07:44:44.277Z,8.03
2023-03-01T07:47:11.136Z,7.64
2023-03-01T07:49:38.390Z,7.74
2023-03-01T07:52:05.360Z,8.09
2023-03-01T07:54:32.211Z,8.32
2023-03-01T07:56:59.106Z,8.30
2023-03-01T07:59:31.038Z,8.04
2023-03-01T08:01:58.974Z,8.72
2023-03-01T08:04:29.557Z,8.82
2023-03-01T08:06:56.608Z,8.26
2023-03-01T08:09:24.201Z,8.75
2023-03-01T08:11:51.194Z,8.70
2023-03-01T08:14:17.980Z,9.10
2023-03-01T08:16:44.695Z,7.97
2023-03-01T08:19:13.208Z,8.67
2023-03-01T08:21:40.086Z,9.25
2023-03-01T08:24:07.573Z,9.15
2023-03-01T08:26:35.513Z,9.27
2023-03-01T08:29:03.355Z,9.50
2023-03-01T08:31:32.670Z,9.52
2023-03-01T08:34:01.957Z,9.12
2023-03-01T08:36:32.171Z,9.31
2023-03-01T08:39:00.892Z,8.75
2023-03-01T08:41:27.800Z,9.08
2023-03-01T08:44:00.973Z,9.81
2023-03-01T08:46:28.430Z,9.18
2023-03-01T08:48:55.106Z,9.72
2023-03-01T08:51:24.128Z,9.48
2023-03-01T08:53:51.042Z,9.74
2023-03-01T08:56:21.257Z,9.72
2023-03-01T08:58:50.011Z,10.45
2023-03-01T09:01:18.583Z,10.02
2023-03-01T09:03:45.466Z,10.49
2023-03-01T09:06:12.554Z,8.70
2023-03-01T09:08:40.488Z,10.17
2023-03-01T09:11:08.193Z,9.63
2023-03-01T09:13:35.055Z,10.73
2023-03-01T09:16:03.031Z,11.71
2023-03-01T09:18:30.121Z,10.18
2023-03-01T09:21:09.681Z,9.54
2023-03-01T09:23:40.270Z,10.67
2023-03-01T09:26:11.065Z,10.51
2023-03-01T09:28:37.996Z,10.87
2023-03-01T09:31:05.160Z,11.34
2023-03-01T09:33:33.072Z,10.67
2023-03-01T09:35:59.558Z,10.58
2023-03-01T09:38:27.199Z,10.31
2023-03-01T09:40:54.195Z,9.74
2023-03-01T09:43:39.957Z,10.80
2023-03-01T09:46:09.111Z,10.49
2023-03-01T09:48:58.925Z,10.31
2023-03-01T09:51:32.549Z,9.90
2023-03-01T09:54:02.069Z,10.39
2023-03-01T09:56:42.608Z,9.75
2023-03-01T09:59:19.261Z,10.41
2023-03-01T10:01:57.105Z,10.58
2023-03-01T10:04:27.329Z,11.42
2023-03-01T10:07:15.754Z,10.24
2023-03-01T10:09:44.392Z,10.35
2023-03-01T10:12:19.850Z,9.46
2023-03-01T10:15:01.160Z,9.50
2023-03-01T10:17:48.660Z,9.45
2023-03-01T10:20:26.803Z,10.38
2023-03-01T10:22:56.333Z,11.85
2023-03-01T10:25:43.665Z,9.57
2023-03-01T10:28:25.437Z,10.86
2023-03-01T10:30:52.737Z,9.79
2023-03-01T10:33:24.896Z,10.02
2023-03-01T10:35:52.458Z,11.44
2023-03-01T10:38:23.525Z,11.30
2023-03-01T10:40:52.251Z,11.16
2023-03-01T10:43:20.183Z,11.24
2023-03-01T10:45:47.482Z,10.44
2023-03-01T10:48:23.283Z,11.31
2023-03-01T10:50:51.016Z,11.18
2023-03-01T10:53:28.518Z,12.27
2023-03-01T10:56:17.520Z,11.73
2023-03-01T10:59:03.077Z,11.92
2023-03-01T11:01:33.449Z,12.32
2023-03-01T11:04:07.188Z,12.02
2023-03-01T11:06:44.422Z,13.32
2023-03-01T11:09:19.686Z,12.64
2023-03-01T11:11:46.179Z,13.26
2023-03-01T11:14:26.406Z,12.02
2023-03-01T11:17:15.019Z,12.15
2023-03-01T11:19:45.097Z,13.86
2023-03-01T11:22:21.384Z,13.19
2023-03-01T11:24:57.331Z,13.23
2023-03-01T11:27:40.081Z,12.81
2023-03-01T11:30:13.875Z,12.21
2023-03-01T11:32:42.686Z,13.24
2023-03-01T11:35:28.792Z,12.65
2023-03-01T11:38:14.021Z,13.48
2023-03-01T11:40:44.586Z,12.40
2023-03-01T11:43:29.982Z,14.32
2023-03-01T11:45:56.489Z,13.64
2023-03-01T11:48:50.373Z,13.57
2023-03-01T11:51:26.603Z,12.96
2023-03-01T11:54:05.263Z,11.90
2023-03-01T11:56:35.221Z,11.52
2023-03-01T11:59:21.099Z,12.47
2023-03-01T12:01:47.617Z,12.03
2023-03-01T12:04:24.764Z,11.78
2023-03-01T12:07:11.362Z,12.40
2023-03-01T12:09:50.102Z,12.43
2023-03-01T12:12:39.588Z,12.15
2023-03-01T12:15:25.025Z,11.54
2023-03-01T12:17:51.444Z,12.63
2023-03-01T12:20:24.738Z,12.66
2023-03-01T12:23:19.373Z,12.55
2023-03-01T12:25:51.328Z,12.35
2023-03-01T12:28:41.658Z,12.66
2023-03-01T12:31:15.801Z,13.89
2023-03-01T12:33:56.084Z,11.75
2023-03-01T12:36:34.017Z,13.41
2023-03-01T12:39:21.314Z,12.42
2023-03-01T12:42:06.030Z,12.80
2023-03-01T12:44:47.912Z,12.06
2023-03-01T12:47:27.715Z,12.26
2023-03-01T12:50:01.462Z,12.24
2023-03-01T12:52:42.448Z,12.94
2023-03-01T12:55:26.207Z,12.60
2023-03-01T12:58:02.630Z,12.64
2023-03-01T13:00:32.723Z,12.21
2023-03-01T13:03:17.915Z,12.37
2023-03-01T13:06:03.189Z,11.97
2023-03-01T13:08:37.755Z,12.51
2023-03-01T13:11:05.685Z,12.10
2023-03-01T13:13:32.824Z,13.21
2023-03-01T13:16:19.820Z,12.56
2023-03-01T13:18:46.786Z,12.50
2023-03-01T13:21:13.411Z,12.77
2023-03-01T13:23:40.913Z,13.64
2023-03-01T13:26:15.643Z,12.17
2023-03-01T13:28:42.991Z,11.86
2023-03-01T13:31:11.404Z,12.23
2023-03-01T13:33:42.769Z,11.98
2023-03-01T13:36:10.306Z,13.05
2023-03-01T13:38:59.318Z,12.57
2023-03-01T13:41:44.223Z,12.03
2023-03-01T13:44:29.645Z,11.94
2023-03-01T13:46:59.299Z,11.78
2023-03-01T13:49:35.553Z,13.17
2023-03-01T13:52:08.052Z,12.46
2023-03-01T13:54:34.709Z,12.56
2023-03-01T13:57:02.233Z,12.89
2023-03-01T13:59:31.281Z,12.23
2023-03-01T14:01:59.358Z,11.88
2023-03-01T14:04:32.338Z,12.41
2023-03-01T14:07:18.852Z,13.35
2023-03-01T14:09:47.184Z,12.82
2023-03-01T14:12:17.720Z,12.74
2023-03-01T14:14:44.262Z,11.71
2023-03-01T14:17:10.663Z,12.58
2023-03-01T14:19:37.317Z,12.53
2023-03-01T14:22:05.282Z,12.79
2023-03-01T14:24:35.065Z,11.34
2023-03-01T14:27:06.613Z,12.88
2023-03-01T14:29:38.219Z,11.99
2023-03-01T14:32:20.584Z,11.91
2023-03-01T14:34:51.294Z,11.94
2023-03-01T14:37:27.298Z,12.17
2023-03-01T14:39:54.297Z,12.14
2023-03-01T14:42:22.984Z,12.48
2023-03-01T14:44:53.030Z,12.27
2023-03-01T14:47:33.296Z,12.73
2023-03-01T14:50:02.519Z,12.40
2023-03-01T14:52:35.309Z,12.21
2023-03-01T14:55:03.455Z,11.84
2023-03-01T14:57:30.916Z,12.71
2023-03-01T14:59:59.569Z,12.20
2023-03-01T15:02:28.142Z,11.33
2023-03-01T15:05:01.888Z,11.49
2023-03-01T15:07:34.935Z,12.37
2023-03-01T15:10:03.486Z,12.59
2023-03-01T15:12:33.506Z,12.43
2023-03-01T15:15:15.761Z,12.68
2023-03-01T15:17:42.720Z,12.41
2023-03-01T15:20:26.901Z,11.01
2023-03-01T15:22:55.149Z,11.07
2023-03-01T15:25:27.709Z,10.37
2023-03-01T15:27:55.909Z,10.82
2023-03-01T15:30:38.884Z,9.98
2023-03-01T15:33:27.030Z,10.33
2023-03-01T15:35:55.129Z,10.59
2023-03-01T15:38:34.868Z,10.00
2023-03-01T15:41:08.326Z,9.86
2023-03-01T15:43:43.726Z,10.14
2023-03-01T15:46:27.650Z,9.92
2023-03-01T15:48:57.850Z,10.06
2023-03-01T15:52:03.651Z,9.22
2023-03-01T15:54:30.684Z,9.41
2023-03-01T15:57:00.103Z,9.33
2023-03-01T15:59:27.048Z,9.17
2023-03-01T16:01:54.434Z,9.46
2023-03-01T16:04:23.825Z,9.24
2023-03-01T16:06:56.156Z,8.93
2023-03-01T16:09:24.793Z,9.06
2023-03-01T16:11:53.990Z,8.32
2023-03-01T16:14:29.645Z,7.98
2023-03-01T16:16:56.753Z,7.98
2023-03-01T16:19:23.976Z,8.63
2023-03-01T16:21:52.209Z,8.03
2023-03-01T16:24:19.732Z,8.33
2023-03-01T16:26:48.124Z,8.11
2023-03-01T16:29:15.767Z,8.18
2023-03-01T16:31:57.566Z,8.35
2023-03-01T16:34:25.000Z,8.44
2023-03-01T16:36:52.629Z,8.00
2023-03-01T16:39:20.351Z,8.71
2023-03-01T16:41:47.977Z,8.39
2023-03-01T16:44:23.409Z,8.06
2023-03-01T16:46:50.971Z,8.01
2023-03-01T16:49:18.173Z,6.91
2023-03-01T16:51:47.930Z,6.88
2023-03-01T16:54:14.957Z,6.72
2023-03-01T16:56:41.701Z,7.03
2023-03-01T16:59:15.097Z,7.09
2023-03-01T17:01:45.343Z,6.84
2023-03-01T17:04:14.493Z,6.51
2023-03-01T17:06:41.956Z,6.62
2023-03-01T17:09:10.983Z,6.16
2023-03-01T17:11:38.337Z,6.02
2023-03-01T17:14:09.036Z,5.67
2023-03-01T17:16:36.933Z,6.63
2023-03-01T17:19:04.392Z,6.46
2023-03-01T17:21:33.307Z,6.12
2023-03-01T17:24:01.446Z,6.64
2023-03-01T17:26:31.396Z,7.21
2023-03-01T17:28:59.736Z,7.65
2023-03-01T17:31:26.372Z,6.69
2023-03-01T17:33:57.513Z,6.95
2023-03-01T17:36:26.282Z,6.80
2023-03-01T17:38:53.310Z,6.44
2023-03-01T17:41:34.696Z,6.98
2023-03-01T17:44:01.423Z,7.91
2023-03-01T17:46:28.847Z,7.84
2023-03-01T17:48:55.726Z,7.39
2023-03-01T17:51:23.022Z,7.65
2023-03-01T17:53:49.958Z,7.46
2023-03-01T17:56:17.209Z,7.67
2023-03-01T17:58:44.560Z,7.52
2023-03-01T18:01:14.667Z,7.42
2023-03-01T18:03:56.309Z,8.14
2023-03-01T18:06:30.347Z,8.60
2023-03-01T18:08:57.518Z,7.88
2023-03-01T18:11:28.976Z,8.31
2023-03-01T18:13:57.842Z,8.90
2023-03-01T18:16:24.681Z,9.44
2023-03-01T18:18:55.807Z,9.19
2023-03-01T18:21:31.424Z,9.78
2023-03-01T18:23:59.784Z,9.10
2023-03-01T18:26:27.895Z,8.48
2023-03-01T18:28:58.523Z,7.76
2023-03-01T18:31:27.480Z,7.21
2023-03-01T18:33:55.271Z,6.56
2023-03-01T18:36:30.755Z,6.69
2023-03-01T18:38:57.862Z,7.28
2023-03-01T18:41:31.278Z,6.85
2023-03-01T18:43:59.253Z,7.84
2023-03-01T18:46:36.083Z,7.40
2023-03-01T18:49:04.396Z,8.05
2023-03-01T18:51:46.058Z,7.89
2023-03-01T18:54:13.887Z,8.68
2023-03-01T18:56:41.969Z,7.95
2023-03-01T18:59:09.015Z,8.79
2023-03-01T19:01:44.644Z,8.42
2023-03-01T19:04:11.850Z,8.96
2023-03-01T19:06:39.489Z,7.71
2023-03-01T19:09:08.494Z,8.31
2023-03-01T19:11:36.121Z,7.99
2023-03-01T19:14:03.458Z,8.11
2023-03-01T19:16:33.828Z,8.59
2023-03-01T19:19:01.900Z,8.50
2023-03-01T19:21:36.546Z,7.66
2023-03-01T19:24:05.825Z,7.47
2023-03-01T19:26:33.527Z,7.31
2023-03-01T19:29:01.351Z,7.51
2023-03-01T19:31:29.316Z,8.27
2023-03-01T19:34:11.429Z,7.17
2023-03-01T19:36:40.394Z,7.04
2023-03-01T19:39:07.339Z,6.67
2023-03-01T19:41:36.166Z,6.54
2023-03-01T19:44:09.357Z,6.78
2023-03-01T19:46:36.650Z,7.51
2023-03-01T19:49:12.042Z,8.20
2023-03-01T19:51:39.734Z,6.59
2023-03-01T19:54:07.037Z,7.35
2023-03-01T19:56:34.576Z,6.92
2023-03-01T19:59:05.625Z,7.23
2023-03-01T20:01:35.033Z,7.79
2023-03-01T20:04:02.195Z,7.69
2023-03-01T20:06:30.434Z,8.62
2023-03-01T20:09:02.363Z,7.97
2023-03-01T20:11:33.583Z,7.09
2023-03-01T20:14:00.849Z,6.85
2023-03-01T20:16:29.391Z,6.86
2023-03-01T20:18:57.647Z,7.33
2023-03-01T20:21:25.144Z,6.66
2023-03-01T20:23:52.634Z,7.23
2023-03-01T20:26:20.606Z,8.19
2023-03-01T20:28:48.751Z,7.59
2023-03-01T20:31:16.654Z,8.04
2023-03-01T20:33:43.592Z,7.20
2023-03-01T20:36:10.722Z,6.84
2023-03-01T20:38:39.696Z,6.28
2023-03-01T20:41:12.588Z,6.10
2023-03-01T20:43:40.781Z,6.40
2023-03-01T20:46:11.524Z,7.57
2023-03-01T20:48:38.623Z,7.09
2023-03-01T20:51:06.110Z,6.29
2023-03-01T20:53:33.771Z,7.13
2023-03-01T20:56:04.722Z,5.97
2023-03-01T20:58:36.164Z,6.17
2023-03-01T21:01:04.765Z,6.20
2023-03-01T21:03:32.079Z,6.31
2023-03-01T21:06:00.273Z,6.17
2023-03-01T21:08:27.497Z,6.08
2023-03-01T21:10:55.388Z,5.99
2023-03-01T21:13:30.080Z,5.39
2023-03-01T21:16:01.921Z,5.67
2023-03-01T21:18:32.301Z,6.55
2023-03-01T21:21:06.926Z,5.75
2023-03-01T21:23:46.671Z,5.52
2023-03-01T21:26:14.861Z,5.34
2023-03-01T21:28:43.453Z,5.33
2023-03-01T21:31:12.442Z,5.08
2023-03-01T21:33:40.509Z,4.90
2023-03-01T21:36:10.494Z,4.11
2023-03-01T21:38:39.725Z,6.01
2023-03-01T21:41:07.946Z,6.38
2023-03-01T21:43:36.865Z,5.57
2023-03-01T21:46:05.577Z,5.42
2023-03-01T21:48:32.911Z,5.76
2023-03-01T21:51:01.184Z,7.22
2023-03-01T21:53:29.814Z,7.87
2023-03-01T21:55:57.230Z,7.66
2023-03-01T21:58:26.813Z,7.24
2023-03-01T22:00:54.304Z,6.45
2023-03-01T22:03:29.888Z,6.52
2023-03-01T22:05:57.891Z,6.17
2023-03-01T22:08:25.227Z,5.47
2023-03-01T22:10:53.539Z,4.75
2023-03-01T22:13:21.109Z,5.50
2023-03-01T22:16:17.653Z,5.15
2023-03-01T22:18:48.321Z,5.64
2023-03-01T22:21:28.289Z,6.30
2023-03-01T22:23:55.999Z,6.39
2023-03-01T22:26:23.310Z,6.92
2023-03-01T22:28:50.429Z,7.19
2023-03-01T22:31:17.703Z,6.89
2023-03-01T22:33:51.178Z,6.64
2023-03-01T22:36:18.445Z,7.03
2023-03-01T22:39:04.883Z,7.77
2023-03-01T22:41:41.730Z,6.65
2023-03-01T22:44:09.266Z,6.01
2023-03-01T22:46:36.998Z,5.82
2023-03-01T22:49:05.821Z,6.31
2023-03-01T22:51:46.903Z,7.77
2023-03-01T22:54:13.876Z,7.49
2023-03-01T22:56:43.516Z,7.99
2023-03-01T22:59:12.397Z,7.34
2023-03-01T23:01:45.168Z,5.87
2023-03-01T23:04:14.910Z,5.45
2023-03-01T23:06:54.303Z,6.04
2023-03-01T23:09:27.829Z,4.50
2023-03-01T23:12:07.574Z,5.27
2023-03-01T23:14:35.021Z,5.34
2023-03-01T23:17:11.352Z,5.40
2023-03-01T23:19:38.363Z,6.17
2023-03-01T23:22:07.274Z,5.90
2023-03-01T23:24:35.649Z,5.49
2023-03-01T23:27:02.890Z,6.07
2023-03-01T23:29:31.200Z,6.52
2023-03-01T23:32:01.284Z,6.09
2023-03-01T23:34:28.946Z,6.85
2023-03-01T23:36:56.605Z,5.84
2023-03-01T23:39:24.035Z,5.85
2023-03-01T23:41:54.142Z,5.69
2023-03-01T23:44:21.796Z,6.78
2023-03-01T23:46:50.530Z,7.60
2023-03-01T23:49:21.124Z,7.86
2023-03-01T23:51:48.564Z,7.84
2023-03-01T23:54:19.625Z,7.70
2023-03-01T23:56:47.107Z,8.01
2023-03-01T23:59:23.703Z,6.62
